sensor_id;sensor_type;location;lat;lon;timestamp;pressure;altitude;pressure_sealevel;temperature
76898;BMP180;65856;52.178;21.176;2023-03-23T00:01:17;99843.20;;;9.22
76898;BMP180;65856;52.178;21.176;2023-03-23T00:03:48;99841.20;;;9.20
76898;BMP180;65856;52.178;21.176;2023-03-23T00:06:17;99835.80;;;9.20
76898;BMP180;65856;52.178;21.176;2023-03-23T00:08:48;99840.80;;;9.20
76898;BMP180;65856;52.178;21.176;2023-03-23T00:11:19;99837.00;;;9.20
76898;BMP180;65856;52.178;21.176;2023-03-23T00:13:49;99839.40;;;9.20
76898;BMP180;65856;52.178;21.176;2023-03-23T00:16:20;99836.80;;;9.10
76898;BMP180;65856;52.178;21.176;2023-03-23T00:18:57;99834.40;;;9.10
76898;BMP180;65856;52.178;21.176;2023-03-23T00:21:29;99832.40;;;9.12
76898;BMP180;65856;52.178;21.176;2023-03-23T00:24:04;99830.60;;;9.10
76898;BMP180;65856;52.178;21.176;2023-03-23T00:26:34;99828.00;;;9.10
76898;BMP180;65856;52.178;21.176;2023-03-23T00:29:04;99834.00;;;9.10
76898;BMP180;65856;52.178;21.176;2023-03-23T00:31:32;99823.60;;;9.10
76898;BMP180;65856;52.178;21.176;2023-03-23T00:34:04;99824.80;;;9.10
76898;BMP180;65856;52.178;21.176;2023-03-23T00:36:33;99825.00;;;9.00
76898;BMP180;65856;52.178;21.176;2023-03-23T00:39:02;99823.20;;;9.00
76898;BMP180;65856;52.178;21.176;2023-03-23T00:41:31;99814.60;;;9.00
76898;BMP180;65856;52.178;21.176;2023-03-23T00:44:00;99815.80;;;9.00
76898;BMP180;65856;52.178;21.176;2023-03-23T00:46:28;99814.00;;;9.00
76898;BMP180;65856;52.178;21.176;2023-03-23T00:48:57;99810.00;;;8.90
76898;BMP180;65856;52.178;21.176;2023-03-23T00:51:25;99808.40;;;8.90
76898;BMP180;65856;52.178;21.176;2023-03-23T00:53:53;99807.60;;;8.90
76898;BMP180;65856;52.178;21.176;2023-03-23T00:56:20;99803.20;;;8.90
76898;BMP180;65856;52.178;21.176;2023-03-23T00:58:50;99803.40;;;8.90
76898;BMP180;65856;52.178;21.176;2023-03-23T01:01:18;99799.60;;;8.90
76898;BMP180;65856;52.178;21.176;2023-03-23T01:03:46;99798.40;;;8.90
76898;BMP180;65856;52.178;21.176;2023-03-23T01:06:13;99795.80;;;8.90
76898;BMP180;65856;52.178;21.176;2023-03-23T01:08:42;99791.20;;;8.90
76898;BMP180;65856;52.178;21.176;2023-03-23T01:11:15;99792.80;;;8.90
76898;BMP180;65856;52.178;21.176;2023-03-23T01:13:43;99791.20;;;8.90
76898;BMP180;65856;52.178;21.176;2023-03-23T01:16:12;99791.00;;;8.90
76898;BMP180;65856;52.178;21.176;2023-03-23T01:18:40;99786.60;;;8.90
76898;BMP180;65856;52.178;21.176;2023-03-23T01:21:11;99782.00;;;8.94
76898;BMP180;65856;52.178;21.176;2023-03-23T01:23:39;99781.20;;;8.90
76898;BMP180;65856;52.178;21.176;2023-03-23T01:26:09;99778.60;;;8.90
76898;BMP180;65856;52.178;21.176;2023-03-23T01:28:38;99781.80;;;8.98
76898;BMP180;65856;52.178;21.176;2023-03-23T01:31:08;99779.00;;;9.00
76898;BMP180;65856;52.178;21.176;2023-03-23T01:33:40;99780.00;;;9.00
76898;BMP180;65856;52.178;21.176;2023-03-23T01:36:12;99779.00;;;9.00
76898;BMP180;65856;52.178;21.176;2023-03-23T01:38:41;99781.20;;;9.00
76898;BMP180;65856;52.178;21.176;2023-03-23T01:41:10;99785.00;;;9.08
76898;BMP180;65856;52.178;21.176;2023-03-23T01:43:58;99787.80;;;9.10
76898;BMP180;65856;52.178;21.176;2023-03-23T01:46:27;99790.60;;;9.10
76898;BMP180;65856;52.178;21.176;2023-03-23T01:48:58;99793.00;;;9.10
76898;BMP180;65856;52.178;21.176;2023-03-23T01:51:37;99790.00;;;9.10
76898;BMP180;65856;52.178;21.176;2023-03-23T01:54:09;99793.40;;;9.10
76898;BMP180;65856;52.178;21.176;2023-03-23T01:56:43;99793.40;;;9.10
76898;BMP180;65856;52.178;21.176;2023-03-23T01:59:14;99790.40;;;9.10
76898;BMP180;65856;52.178;21.176;2023-03-23T02:01:43;99792.00;;;9.10
76898;BMP180;65856;52.178;21.176;2023-03-23T02:04:14;99789.80;;;9.10
76898;BMP180;65856;52.178;21.176;2023-03-23T02:06:44;99783.20;;;9.10
76898;BMP180;65856;52.178;21.176;2023-03-23T02:09:13;99780.20;;;9.10
76898;BMP180;65856;52.178;21.176;2023-03-23T02:11:44;99771.80;;;9.06
76898;BMP180;65856;52.178;21.176;2023-03-23T02:14:13;99772.40;;;9.00
76898;BMP180;65856;52.178;21.176;2023-03-23T02:16:50;99766.40;;;9.00
76898;BMP180;65856;52.178;21.176;2023-03-23T02:19:55;99763.00;;;9.00
76898;BMP180;65856;52.178;21.176;2023-03-23T02:23:04;99758.40;;;9.00
76898;BMP180;65856;52.178;21.176;2023-03-23T02:25:53;99756.80;;;9.00
76898;BMP180;65856;52.178;21.176;2023-03-23T02:28:46;99756.40;;;8.90
76898;BMP180;65856;52.178;21.176;2023-03-23T02:31:45;99758.40;;;8.90
76898;BMP180;65856;52.178;21.176;2023-03-23T02:34:17;99753.40;;;8.80
76898;BMP180;65856;52.178;21.176;2023-03-23T02:36:53;99751.80;;;8.80
76898;BMP180;65856;52.178;21.176;2023-03-23T02:39:26;99747.20;;;8.80
76898;BMP180;65856;52.178;21.176;2023-03-23T02:42:04;99748.80;;;8.80
76898;BMP180;65856;52.178;21.176;2023-03-23T02:44:36;99743.60;;;8.80
76898;BMP180;65856;52.178;21.176;2023-03-23T02:47:10;99743.60;;;8.76
76898;BMP180;65856;52.178;21.176;2023-03-23T02:49:42;99742.20;;;8.74
76898;BMP180;65856;52.178;21.176;2023-03-23T02:52:16;99747.80;;;8.80
76898;BMP180;65856;52.178;21.176;2023-03-23T02:54:48;99751.00;;;8.80
76898;BMP180;65856;52.178;21.176;2023-03-23T02:57:18;99748.20;;;8.90
76898;BMP180;65856;52.178;21.176;2023-03-23T02:59:47;99744.00;;;9.00
76898;BMP180;65856;52.178;21.176;2023-03-23T03:02:18;99745.60;;;9.00
76898;BMP180;65856;52.178;21.176;2023-03-23T03:04:56;99741.20;;;9.00
76898;BMP180;65856;52.178;21.176;2023-03-23T03:07:37;99739.60;;;9.04
76898;BMP180;65856;52.178;21.176;2023-03-23T03:10:14;99733.60;;;9.00
76898;BMP180;65856;52.178;21.176;2023-03-23T03:12:53;99737.20;;;9.00
76898;BMP180;65856;52.178;21.176;2023-03-23T03:15:35;99733.80;;;9.00
76898;BMP180;65856;52.178;21.176;2023-03-23T03:18:11;99739.60;;;9.00
76898;BMP180;65856;52.178;21.176;2023-03-23T03:20:45;99751.40;;;9.00
76898;BMP180;65856;52.178;21.176;2023-03-23T03:23:15;99751.40;;;9.08
76898;BMP180;65856;52.178;21.176;2023-03-23T03:25:46;99748.00;;;9.10
76898;BMP180;65856;52.178;21.176;2023-03-23T03:28:17;99747.00;;;9.20
76898;BMP180;65856;52.178;21.176;2023-03-23T03:30:51;99739.20;;;9.20
76898;BMP180;65856;52.178;21.176;2023-03-23T03:33:21;99748.40;;;9.24
76898;BMP180;65856;52.178;21.176;2023-03-23T03:35:54;99752.60;;;9.30
76898;BMP180;65856;52.178;21.176;2023-03-23T03:38:23;99752.40;;;9.30
76898;BMP180;65856;52.178;21.176;2023-03-23T03:40:52;99753.80;;;9.22
76898;BMP180;65856;52.178;21.176;2023-03-23T03:43:19;99748.80;;;9.20
76898;BMP180;65856;52.178;21.176;2023-03-23T03:45:47;99757.00;;;9.10
76898;BMP180;65856;52.178;21.176;2023-03-23T03:48:15;99763.20;;;9.12
76898;BMP180;65856;52.178;21.176;2023-03-23T03:50:42;99762.20;;;9.10
76898;BMP180;65856;52.178;21.176;2023-03-23T03:53:10;99762.40;;;9.20
76898;BMP180;65856;52.178;21.176;2023-03-23T03:55:38;99761.60;;;9.20
76898;BMP180;65856;52.178;21.176;2023-03-23T03:58:06;99762.00;;;9.20
76898;BMP180;65856;52.178;21.176;2023-03-23T04:00:34;99760.20;;;9.28
76898;BMP180;65856;52.178;21.176;2023-03-23T04:03:02;99762.60;;;9.30
76898;BMP180;65856;52.178;21.176;2023-03-23T04:05:30;99753.40;;;9.30
76898;BMP180;65856;52.178;21.176;2023-03-23T04:07:58;99755.80;;;9.30
76898;BMP180;65856;52.178;21.176;2023-03-23T04:10:30;99747.40;;;9.10
76898;BMP180;65856;52.178;21.176;2023-03-23T04:12:58;99741.00;;;9.02
76898;BMP180;65856;52.178;21.176;2023-03-23T04:15:26;99737.40;;;9.00
76898;BMP180;65856;52.178;21.176;2023-03-23T04:17:54;99730.20;;;8.90
76898;BMP180;65856;52.178;21.176;2023-03-23T04:20:24;99733.60;;;8.90
76898;BMP180;65856;52.178;21.176;2023-03-23T04:22:52;99732.80;;;8.90
76898;BMP180;65856;52.178;21.176;2023-03-23T04:25:22;99730.20;;;8.90
76898;BMP180;65856;52.178;21.176;2023-03-23T04:27:51;99731.20;;;8.90
76898;BMP180;65856;52.178;21.176;2023-03-23T04:30:21;99730.80;;;8.90
76898;BMP180;65856;52.178;21.176;2023-03-23T04:32:50;99727.40;;;8.90
76898;BMP180;65856;52.178;21.176;2023-03-23T04:35:21;99731.00;;;8.90
76898;BMP180;65856;52.178;21.176;2023-03-23T04:37:49;99729.20;;;8.90
76898;BMP180;65856;52.178;21.176;2023-03-23T04:40:18;99731.80;;;8.90
76898;BMP180;65856;52.178;21.176;2023-03-23T04:42:47;99730.20;;;8.90
76898;BMP180;65856;52.178;21.176;2023-03-23T04:45:20;99733.00;;;8.90
76898;BMP180;65856;52.178;21.176;2023-03-23T04:47:49;99730.40;;;8.90
76898;BMP180;65856;52.178;21.176;2023-03-23T04:50:21;99729.20;;;8.90
76898;BMP180;65856;52.178;21.176;2023-03-23T04:52:51;99730.40;;;9.00
76898;BMP180;65856;52.178;21.176;2023-03-23T04:55:21;99732.60;;;8.90
76898;BMP180;65856;52.178;21.176;2023-03-23T04:57:49;99732.60;;;8.90
76898;BMP180;65856;52.178;21.176;2023-03-23T05:00:18;99735.00;;;8.90
76898;BMP180;65856;52.178;21.176;2023-03-23T05:02:48;99725.60;;;8.80
76898;BMP180;65856;52.178;21.176;2023-03-23T05:05:21;99726.20;;;8.80
76898;BMP180;65856;52.178;21.176;2023-03-23T05:07:49;99723.00;;;8.80
76898;BMP180;65856;52.178;21.176;2023-03-23T05:10:17;99718.60;;;8.80
76898;BMP180;65856;52.178;21.176;2023-03-23T05:12:45;99717.20;;;8.80
76898;BMP180;65856;52.178;21.176;2023-03-23T05:15:16;99713.60;;;8.80
76898;BMP180;65856;52.178;21.176;2023-03-23T05:17:44;99720.00;;;8.80
76898;BMP180;65856;52.178;21.176;2023-03-23T05:20:14;99720.60;;;8.80
76898;BMP180;65856;52.178;21.176;2023-03-23T05:22:45;99728.20;;;8.90
76898;BMP180;65856;52.178;21.176;2023-03-23T05:25:16;99731.80;;;8.90
76898;BMP180;65856;52.178;21.176;2023-03-23T05:27:47;99727.00;;;8.90
76898;BMP180;65856;52.178;21.176;2023-03-23T05:30:21;99728.60;;;8.96
76898;BMP180;65856;52.178;21.176;2023-03-23T05:32:49;99723.20;;;8.94
76898;BMP180;65856;52.178;21.176;2023-03-23T05:35:19;99726.40;;;9.00
76898;BMP180;65856;52.178;21.176;2023-03-23T05:37:47;99729.80;;;9.02
76898;BMP180;65856;52.178;21.176;2023-03-23T05:40:15;99729.20;;;9.10
76898;BMP180;65856;52.178;21.176;2023-03-23T05:42:43;99715.60;;;9.20
76898;BMP180;65856;52.178;21.176;2023-03-23T05:45:13;99717.60;;;9.20
76898;BMP180;65856;52.178;21.176;2023-03-23T05:47:41;99717.40;;;9.30
76898;BMP180;65856;52.178;21.176;2023-03-23T05:50:11;99722.00;;;9.30
76898;BMP180;65856;52.178;21.176;2023-03-23T05:52:40;99726.60;;;9.30
76898;BMP180;65856;52.178;21.176;2023-03-23T05:55:10;99732.20;;;9.30
76898;BMP180;65856;52.178;21.176;2023-03-23T05:57:38;99731.40;;;9.40
76898;BMP180;65856;52.178;21.176;2023-03-23T06:00:09;99730.40;;;9.48
76898;BMP180;65856;52.178;21.176;2023-03-23T06:02:38;99730.20;;;9.50
76898;BMP180;65856;52.178;21.176;2023-03-23T06:05:08;99731.80;;;9.60
76898;BMP180;65856;52.178;21.176;2023-03-23T06:07:36;99733.40;;;9.70
76898;BMP180;65856;52.178;21.176;2023-03-23T06:10:08;99736.00;;;9.80
76898;BMP180;65856;52.178;21.176;2023-03-23T06:12:36;99737.00;;;9.80
76898;BMP180;65856;52.178;21.176;2023-03-23T06:15:06;99743.40;;;9.88
76898;BMP180;65856;52.178;21.176;2023-03-23T06:17:35;99739.00;;;9.90
76898;BMP180;65856;52.178;21.176;2023-03-23T06:20:04;99738.00;;;9.90
76898;BMP180;65856;52.178;21.176;2023-03-23T06:22:37;99732.40;;;9.90
76898;BMP180;65856;52.178;21.176;2023-03-23T06:25:08;99727.60;;;10.00
76898;BMP180;65856;52.178;21.176;2023-03-23T06:27:36;99732.60;;;10.00
76898;BMP180;65856;52.178;21.176;2023-03-23T06:30:06;99731.00;;;10.10
76898;BMP180;65856;52.178;21.176;2023-03-23T06:32:34;99732.60;;;10.20
76898;BMP180;65856;52.178;21.176;2023-03-23T06:35:03;99737.40;;;10.30
76898;BMP180;65856;52.178;21.176;2023-03-23T06:37:31;99739.80;;;10.40
76898;BMP180;65856;52.178;21.176;2023-03-23T06:39:58;99740.20;;;10.50
76898;BMP180;65856;52.178;21.176;2023-03-23T06:42:26;99748.00;;;10.60
76898;BMP180;65856;52.178;21.176;2023-03-23T06:44:54;99748.20;;;10.70
76898;BMP180;65856;52.178;21.176;2023-03-23T06:47:23;99742.20;;;10.70
76898;BMP180;65856;52.178;21.176;2023-03-23T06:49:51;99756.00;;;10.80
76898;BMP180;65856;52.178;21.176;2023-03-23T06:52:19;99753.40;;;11.00
76898;BMP180;65856;52.178;21.176;2023-03-23T06:54:47;99753.60;;;11.10
76898;BMP180;65856;52.178;21.176;2023-03-23T06:57:15;99748.00;;;11.30
76898;BMP180;65856;52.178;21.176;2023-03-23T06:59:44;99749.40;;;11.50
76898;BMP180;65856;52.178;21.176;2023-03-23T07:02:13;99752.80;;;11.64
76898;BMP180;65856;52.178;21.176;2023-03-23T07:04:41;99748.60;;;11.80
76898;BMP180;65856;52.178;21.176;2023-03-23T07:07:10;99747.20;;;12.00
76898;BMP180;65856;52.178;21.176;2023-03-23T07:09:41;99750.40;;;12.22
76898;BMP180;65856;52.178;21.176;2023-03-23T07:12:09;99748.80;;;12.50
76898;BMP180;65856;52.178;21.176;2023-03-23T07:14:37;99756.40;;;12.60
76898;BMP180;65856;52.178;21.176;2023-03-23T07:17:05;99752.40;;;12.72
76898;BMP180;65856;52.178;21.176;2023-03-23T07:19:34;99757.80;;;12.90
76898;BMP180;65856;52.178;21.176;2023-03-23T07:22:05;99745.80;;;13.06
76898;BMP180;65856;52.178;21.176;2023-03-23T07:24:33;99741.40;;;13.20
76898;BMP180;65856;52.178;21.176;2023-03-23T07:27:01;99739.00;;;13.30
76898;BMP180;65856;52.178;21.176;2023-03-23T07:29:30;99748.60;;;13.40
76898;BMP180;65856;52.178;21.176;2023-03-23T07:31:58;99741.00;;;13.50
76898;BMP180;65856;52.178;21.176;2023-03-23T07:34:25;99745.20;;;13.76
76898;BMP180;65856;52.178;21.176;2023-03-23T07:36:53;99740.40;;;13.96
76898;BMP180;65856;52.178;21.176;2023-03-23T07:39:21;99750.40;;;14.40
76898;BMP180;65856;52.178;21.176;2023-03-23T07:41:51;99754.20;;;14.70
76898;BMP180;65856;52.178;21.176;2023-03-23T07:44:18;99756.20;;;14.90
76898;BMP180;65856;52.178;21.176;2023-03-23T07:46:46;99758.80;;;15.00
76898;BMP180;65856;52.178;21.176;2023-03-23T07:49:15;99762.20;;;15.00
76898;BMP180;65856;52.178;21.176;2023-03-23T07:51:43;99760.80;;;15.00
76898;BMP180;65856;52.178;21.176;2023-03-23T07:54:11;99753.80;;;15.20
76898;BMP180;65856;52.178;21.176;2023-03-23T07:56:39;99754.20;;;15.66
76898;BMP180;65856;52.178;21.176;2023-03-23T07:59:08;99754.60;;;16.08
76898;BMP180;65856;52.178;21.176;2023-03-23T08:01:35;99758.20;;;16.40
76898;BMP180;65856;52.178;21.176;2023-03-23T08:04:04;99764.20;;;16.74
76898;BMP180;65856;52.178;21.176;2023-03-23T08:06:34;99765.20;;;16.80
76898;BMP180;65856;52.178;21.176;2023-03-23T08:09:03;99765.40;;;16.80
76898;BMP180;65856;52.178;21.176;2023-03-23T08:11:33;99763.40;;;16.80
76898;BMP180;65856;52.178;21.176;2023-03-23T08:14:01;99759.20;;;16.68
76898;BMP180;65856;52.178;21.176;2023-03-23T08:16:30;99748.60;;;16.52
76898;BMP180;65856;52.178;21.176;2023-03-23T08:18:58;99755.60;;;16.58
76898;BMP180;65856;52.178;21.176;2023-03-23T08:21:26;99752.00;;;16.60
76898;BMP180;65856;52.178;21.176;2023-03-23T08:23:54;99746.80;;;16.50
76898;BMP180;65856;52.178;21.176;2023-03-23T08:26:22;99742.60;;;16.50
76898;BMP180;65856;52.178;21.176;2023-03-23T08:28:50;99736.40;;;16.50
76898;BMP180;65856;52.178;21.176;2023-03-23T08:31:17;99731.40;;;16.50
76898;BMP180;65856;52.178;21.176;2023-03-23T08:33:45;99730.40;;;16.50
76898;BMP180;65856;52.178;21.176;2023-03-23T08:36:13;99727.00;;;16.50
76898;BMP180;65856;52.178;21.176;2023-03-23T08:38:41;99719.00;;;16.82
76898;BMP180;65856;52.178;21.176;2023-03-23T08:41:10;99725.60;;;17.10
76898;BMP180;65856;52.178;21.176;2023-03-23T08:43:38;99717.40;;;17.20
76898;BMP180;65856;52.178;21.176;2023-03-23T08:46:07;99713.00;;;17.60
76898;BMP180;65856;52.178;21.176;2023-03-23T08:48:38;99708.40;;;17.90
76898;BMP180;65856;52.178;21.176;2023-03-23T08:51:07;99714.80;;;18.00
76898;BMP180;65856;52.178;21.176;2023-03-23T08:53:35;99711.00;;;18.00
76898;BMP180;65856;52.178;21.176;2023-03-23T08:56:07;99715.00;;;17.80
76898;BMP180;65856;52.178;21.176;2023-03-23T08:58:35;99722.40;;;17.60
76898;BMP180;65856;52.178;21.176;2023-03-23T09:01:06;99722.80;;;17.60
76898;BMP180;65856;52.178;21.176;2023-03-23T09:03:34;99723.20;;;17.50
76898;BMP180;65856;52.178;21.176;2023-03-23T09:06:05;99729.00;;;17.40
76898;BMP180;65856;52.178;21.176;2023-03-23T09:08:34;99735.20;;;17.30
76898;BMP180;65856;52.178;21.176;2023-03-23T09:11:04;99731.40;;;17.20
76898;BMP180;65856;52.178;21.176;2023-03-23T09:13:33;99731.20;;;17.10
76898;BMP180;65856;52.178;21.176;2023-03-23T09:16:01;99728.40;;;16.96
76898;BMP180;65856;52.178;21.176;2023-03-23T09:18:30;99732.00;;;16.80
76898;BMP180;65856;52.178;21.176;2023-03-23T09:21:03;99729.60;;;16.70
76898;BMP180;65856;52.178;21.176;2023-03-23T09:23:30;99730.60;;;16.60
76898;BMP180;65856;52.178;21.176;2023-03-23T09:26:00;99734.00;;;16.50
76898;BMP180;65856;52.178;21.176;2023-03-23T09:28:28;99735.80;;;16.40
76898;BMP180;65856;52.178;21.176;2023-03-23T09:30:58;99729.40;;;16.30
76898;BMP180;65856;52.178;21.176;2023-03-23T09:33:26;99725.40;;;16.22
76898;BMP180;65856;52.178;21.176;2023-03-23T09:35:56;99724.00;;;16.20
76898;BMP180;65856;52.178;21.176;2023-03-23T09:38:23;99727.20;;;16.20
76898;BMP180;65856;52.178;21.176;2023-03-23T09:41:19;99727.20;;;16.20
76898;BMP180;65856;52.178;21.176;2023-03-23T09:44:03;99713.60;;;16.20
76898;BMP180;65856;52.178;21.176;2023-03-23T09:46:49;99710.60;;;16.20
76898;BMP180;65856;52.178;21.176;2023-03-23T09:49:25;99712.20;;;16.20
76898;BMP180;65856;52.178;21.176;2023-03-23T09:51:57;99708.60;;;16.20
76898;BMP180;65856;52.178;21.176;2023-03-23T09:54:30;99709.40;;;16.24
76898;BMP180;65856;52.178;21.176;2023-03-23T09:57:00;99699.80;;;16.30
76898;BMP180;65856;52.178;21.176;2023-03-23T09:59:34;99702.40;;;16.30
76898;BMP180;65856;52.178;21.176;2023-03-23T10:02:14;99696.80;;;16.40
76898;BMP180;65856;52.178;21.176;2023-03-23T10:04:48;99693.80;;;16.50
76898;BMP180;65856;52.178;21.176;2023-03-23T10:07:19;99691.80;;;16.50
76898;BMP180;65856;52.178;21.176;2023-03-23T10:09:51;99693.20;;;16.58
76898;BMP180;65856;52.178;21.176;2023-03-23T10:12:30;99694.20;;;16.70
76898;BMP180;65856;52.178;21.176;2023-03-23T10:15:15;99687.80;;;16.80
76898;BMP180;65856;52.178;21.176;2023-03-23T10:17:53;99687.60;;;16.90
76898;BMP180;65856;52.178;21.176;2023-03-23T10:20:36;99688.00;;;17.00
76898;BMP180;65856;52.178;21.176;2023-03-23T10:23:22;99684.80;;;17.20
76898;BMP180;65856;52.178;21.176;2023-03-23T10:26:02;99677.60;;;17.40
76898;BMP180;65856;52.178;21.176;2023-03-23T10:28:39;99677.40;;;17.60
76898;BMP180;65856;52.178;21.176;2023-03-23T10:31:11;99672.20;;;17.72
76898;BMP180;65856;52.178;21.176;2023-03-23T10:33:43;99669.60;;;17.90
76898;BMP180;65856;52.178;21.176;2023-03-23T10:36:18;99663.80;;;18.00
76898;BMP180;65856;52.178;21.176;2023-03-23T10:38:52;99660.00;;;18.10
76898;BMP180;65856;52.178;21.176;2023-03-23T10:41:22;99660.00;;;18.10
76898;BMP180;65856;52.178;21.176;2023-03-23T10:43:50;99661.00;;;18.02
76898;BMP180;65856;52.178;21.176;2023-03-23T10:46:33;99667.40;;;18.10
76898;BMP180;65856;52.178;21.176;2023-03-23T10:49:10;99664.20;;;18.10
76898;BMP180;65856;52.178;21.176;2023-03-23T10:51:44;99660.20;;;18.10
76898;BMP180;65856;52.178;21.176;2023-03-23T10:54:31;99656.80;;;18.20
76898;BMP180;65856;52.178;21.176;2023-03-23T10:56:59;99657.80;;;18.40
76898;BMP180;65856;52.178;21.176;2023-03-23T10:59:31;99652.00;;;18.60
76898;BMP180;65856;52.178;21.176;2023-03-23T11:02:07;99654.60;;;18.86
76898;BMP180;65856;52.178;21.176;2023-03-23T11:04:53;99651.60;;;19.02
76898;BMP180;65856;52.178;21.176;2023-03-23T11:07:31;99648.00;;;19.10
76898;BMP180;65856;52.178;21.176;2023-03-23T11:10:21;99650.80;;;19.14
76898;BMP180;65856;52.178;21.176;2023-03-23T11:12:49;99646.80;;;19.38
76898;BMP180;65856;52.178;21.176;2023-03-23T11:15:28;99650.80;;;19.50
76898;BMP180;65856;52.178;21.176;2023-03-23T11:17:59;99652.60;;;19.60
76898;BMP180;65856;52.178;21.176;2023-03-23T11:20:32;99648.00;;;19.60
76898;BMP180;65856;52.178;21.176;2023-03-23T11:23:08;99645.40;;;19.60
76898;BMP180;65856;52.178;21.176;2023-03-23T11:25:54;99642.60;;;19.70
76898;BMP180;65856;52.178;21.176;2023-03-23T11:28:27;99643.60;;;19.70
76898;BMP180;65856;52.178;21.176;2023-03-23T11:30:58;99639.60;;;19.70
76898;BMP180;65856;52.178;21.176;2023-03-23T11:33:35;99636.00;;;19.70
76898;BMP180;65856;52.178;21.176;2023-03-23T11:36:04;99635.60;;;19.70
76898;BMP180;65856;52.178;21.176;2023-03-23T11:38:34;99631.80;;;19.60
76898;BMP180;65856;52.178;21.176;2023-03-23T11:41:09;99629.60;;;19.58
76898;BMP180;65856;52.178;21.176;2023-03-23T11:43:45;99627.00;;;19.50
76898;BMP180;65856;52.178;21.176;2023-03-23T11:46:27;99624.60;;;19.40
76898;BMP180;65856;52.178;21.176;2023-03-23T11:49:01;99621.40;;;19.40
76898;BMP180;65856;52.178;21.176;2023-03-23T11:51:38;99618.40;;;19.30
76898;BMP180;65856;52.178;21.176;2023-03-23T11:54:17;99612.60;;;19.30
76898;BMP180;65856;52.178;21.176;2023-03-23T11:56:46;99603.80;;;19.20
76898;BMP180;65856;52.178;21.176;2023-03-23T11:59:17;99603.80;;;19.20
76898;BMP180;65856;52.178;21.176;2023-03-23T12:01:56;99608.00;;;19.20
76898;BMP180;65856;52.178;21.176;2023-03-23T12:04:46;99593.20;;;19.34
76898;BMP180;65856;52.178;21.176;2023-03-23T12:07:41;99585.80;;;19.40
76898;BMP180;65856;52.178;21.176;2023-03-23T12:10:32;99576.20;;;19.40
76898;BMP180;65856;52.178;21.176;2023-03-23T12:13:36;99571.00;;;19.48
76898;BMP180;65856;52.178;21.176;2023-03-23T12:16:19;99570.00;;;19.50
76898;BMP180;65856;52.178;21.176;2023-03-23T12:19:01;99572.80;;;19.50
76898;BMP180;65856;52.178;21.176;2023-03-23T12:21:44;99576.20;;;19.60
76898;BMP180;65856;52.178;21.176;2023-03-23T12:24:40;99570.80;;;19.60
76898;BMP180;65856;52.178;21.176;2023-03-23T12:27:21;99566.80;;;19.60
76898;BMP180;65856;52.178;21.176;2023-03-23T12:30:13;99566.20;;;19.60
76898;BMP180;65856;52.178;21.176;2023-03-23T12:32:55;99570.60;;;19.50
76898;BMP180;65856;52.178;21.176;2023-03-23T12:35:38;99567.20;;;19.40
76898;BMP180;65856;52.178;21.176;2023-03-23T12:38:18;99556.40;;;19.40
76898;BMP180;65856;52.178;21.176;2023-03-23T12:41:02;99545.80;;;19.30
76898;BMP180;65856;52.178;21.176;2023-03-23T12:43:41;99551.20;;;19.40
76898;BMP180;65856;52.178;21.176;2023-03-23T12:46:40;99551.80;;;19.40
76898;BMP180;65856;52.178;21.176;2023-03-23T12:49:14;99550.00;;;19.40
76898;BMP180;65856;52.178;21.176;2023-03-23T12:51:51;99549.40;;;19.40
76898;BMP180;65856;52.178;21.176;2023-03-23T12:54:28;99541.00;;;19.30
76898;BMP180;65856;52.178;21.176;2023-03-23T12:57:04;99555.40;;;19.30
76898;BMP180;65856;52.178;21.176;2023-03-23T12:59:42;99550.00;;;19.30
76898;BMP180;65856;52.178;21.176;2023-03-23T13:02:20;99554.00;;;19.30
76898;BMP180;65856;52.178;21.176;2023-03-23T13:04:55;99549.40;;;19.30
76898;BMP180;65856;52.178;21.176;2023-03-23T13:07:30;99547.80;;;19.20
76898;BMP180;65856;52.178;21.176;2023-03-23T13:10:12;99547.80;;;19.22
76898;BMP180;65856;52.178;21.176;2023-03-23T13:12:43;99551.00;;;19.20
76898;BMP180;65856;52.178;21.176;2023-03-23T13:15:27;99546.60;;;19.20
76898;BMP180;65856;52.178;21.176;2023-03-23T13:18:10;99545.80;;;19.20
76898;BMP180;65856;52.178;21.176;2023-03-23T13:20:55;99546.80;;;19.10
76898;BMP180;65856;52.178;21.176;2023-03-23T13:23:30;99545.20;;;19.06
76898;BMP180;65856;52.178;21.176;2023-03-23T13:26:03;99545.80;;;19.00
76898;BMP180;65856;52.178;21.176;2023-03-23T13:28:47;99545.20;;;18.90
76898;BMP180;65856;52.178;21.176;2023-03-23T13:31:21;99533.60;;;18.90
76898;BMP180;65856;52.178;21.176;2023-03-23T13:33:57;99534.40;;;18.80
76898;BMP180;65856;52.178;21.176;2023-03-23T13:36:31;99543.00;;;18.70
76898;BMP180;65856;52.178;21.176;2023-03-23T13:39:02;99544.80;;;18.70
76898;BMP180;65856;52.178;21.176;2023-03-23T13:41:32;99548.60;;;18.60
76898;BMP180;65856;52.178;21.176;2023-03-23T13:44:19;99552.20;;;18.50
76898;BMP180;65856;52.178;21.176;2023-03-23T13:47:08;99540.80;;;18.50
76898;BMP180;65856;52.178;21.176;2023-03-23T13:49:49;99541.20;;;18.40
76898;BMP180;65856;52.178;21.176;2023-03-23T13:52:24;99532.40;;;18.40
76898;BMP180;65856;52.178;21.176;2023-03-23T13:55:12;99538.60;;;18.40
76898;BMP180;65856;52.178;21.176;2023-03-23T13:57:52;99541.00;;;18.40
76898;BMP180;65856;52.178;21.176;2023-03-23T14:00:45;99537.00;;;18.40
76898;BMP180;65856;52.178;21.176;2023-03-23T14:03:19;99536.20;;;18.32
76898;BMP180;65856;52.178;21.176;2023-03-23T14:06:02;99534.60;;;18.30
76898;BMP180;65856;52.178;21.176;2023-03-23T14:08:42;99536.20;;;18.32
76898;BMP180;65856;52.178;21.176;2023-03-23T14:11:17;99540.20;;;18.36
76898;BMP180;65856;52.178;21.176;2023-03-23T14:13:59;99531.80;;;18.34
76898;BMP180;65856;52.178;21.176;2023-03-23T14:16:39;99545.20;;;18.40
76898;BMP180;65856;52.178;21.176;2023-03-23T14:19:18;99559.40;;;18.40
76898;BMP180;65856;52.178;21.176;2023-03-23T14:21:54;99558.40;;;18.40
76898;BMP180;65856;52.178;21.176;2023-03-23T14:24:25;99560.40;;;18.40
76898;BMP180;65856;52.178;21.176;2023-03-23T14:27:02;99566.60;;;18.30
76898;BMP180;65856;52.178;21.176;2023-03-23T14:29:35;99567.00;;;18.30
76898;BMP180;65856;52.178;21.176;2023-03-23T14:32:06;99576.20;;;18.20
76898;BMP180;65856;52.178;21.176;2023-03-23T14:34:35;99579.80;;;18.20